createdAt,value
2019-01-14T00:00:45.303Z,7.90
2019-01-14T00:01:45.295Z,7.88
2019-01-14T00:02:53.714Z,7.93
2019-01-14T00:03:52.596Z,7.85
2019-01-14T00:04:55.677Z,7.80
2019-01-14T00:05:53.585Z,7.70
2019-01-14T00:06:53.087Z,7.77
2019-01-14T00:07:52.581Z,7.79
2019-01-14T00:08:45.236Z,7.70
2019-01-14T00:09:45.203Z,7.70
2019-01-14T00:10:45.189Z,7.67
2019-01-14T00:11:45.178Z,7.67
2019-01-14T00:12:45.169Z,7.66
2019-01-14T00:13:45.165Z,7.58
2019-01-14T00:14:45.162Z,7.67
2019-01-14T00:15:45.137Z,7.70
2019-01-14T00:16:45.124Z,7.72
2019-01-14T00:17:45.114Z,7.70
2019-01-14T00:18:45.108Z,7.67
2019-01-14T00:19:45.125Z,7.66
2019-01-14T00:20:45.115Z,7.67
2019-01-14T00:21:45.074Z,7.60
2019-01-14T00:22:45.064Z,7.54
2019-01-14T00:23:45.059Z,7.58
2019-01-14T00:24:45.039Z,7.45
2019-01-14T00:25:45.049Z,7.40
2019-01-14T00:26:45.013Z,7.42
2019-01-14T00:27:45.009Z,7.42
2019-01-14T00:28:45.914Z,7.33
2019-01-14T00:29:44.996Z,7.28
2019-01-14T00:30:44.975Z,7.23
2019-01-14T00:31:44.979Z,7.14
2019-01-14T00:32:44.953Z,7.13
2019-01-14T00:33:44.955Z,7.15
2019-01-14T00:34:44.940Z,7.17
2019-01-14T00:35:44.919Z,7.02
2019-01-14T00:36:44.907Z,6.97
2019-01-14T00:37:44.911Z,6.93
2019-01-14T00:38:44.888Z,7.00
2019-01-14T00:39:44.881Z,7.03
2019-01-14T00:40:45.869Z,7.05
2019-01-14T00:41:44.853Z,6.87
2019-01-14T00:42:44.860Z,6.89
2019-01-14T00:43:44.836Z,6.89
2019-01-14T00:44:44.827Z,6.95
2019-01-14T00:45:44.816Z,6.92
2019-01-14T00:46:44.802Z,6.87
2019-01-14T00:47:44.801Z,6.85
2019-01-14T00:48:44.801Z,6.96
2019-01-14T00:49:44.771Z,6.88
2019-01-14T00:50:44.757Z,7.00
2019-01-14T00:51:44.738Z,6.85
2019-01-14T00:52:44.735Z,7.00
2019-01-14T00:53:44.725Z,6.88
2019-01-14T00:54:44.732Z,6.93
2019-01-14T00:55:44.710Z,6.88
2019-01-14T00:56:44.688Z,6.93
2019-01-14T00:57:44.680Z,6.99
2019-01-14T00:58:44.665Z,6.95
2019-01-14T00:59:44.682Z,7.00
2019-01-14T01:00:44.672Z,6.97
2019-01-14T01:01:44.640Z,7.02
2019-01-14T01:02:44.635Z,7.00
2019-01-14T01:03:44.638Z,7.00
2019-01-14T01:04:44.608Z,6.99
2019-01-14T01:05:44.659Z,6.93
2019-01-14T01:06:44.583Z,6.92
2019-01-14T01:07:44.596Z,6.89
2019-01-14T01:08:44.564Z,6.87
2019-01-14T01:09:44.565Z,6.93
2019-01-14T01:10:44.541Z,6.87
2019-01-14T01:11:44.595Z,6.92
2019-01-14T01:12:44.531Z,6.88
2019-01-14T01:13:44.504Z,6.78
2019-01-14T01:14:44.493Z,6.74
2019-01-14T01:15:44.483Z,6.78
2019-01-14T01:16:44.514Z,6.77
2019-01-14T01:17:44.464Z,6.77
2019-01-14T01:18:44.449Z,6.72
2019-01-14T01:19:44.444Z,6.72
2019-01-14T01:20:46.410Z,6.63
2019-01-14T01:21:46.430Z,6.59
2019-01-14T01:22:44.403Z,6.63
2019-01-14T01:23:44.398Z,6.64
2019-01-14T01:24:44.386Z,6.67
2019-01-14T01:25:44.375Z,6.60
2019-01-14T01:26:44.364Z,6.66
2019-01-14T01:27:44.367Z,6.67
2019-01-14T01:28:44.355Z,6.60
2019-01-14T01:29:44.332Z,6.59
2019-01-14T01:30:44.316Z,6.56
2019-01-14T01:31:44.311Z,6.51
2019-01-14T01:32:44.303Z,6.57
2019-01-14T01:33:44.296Z,6.54
2019-01-14T01:34:44.268Z,6.62
2019-01-14T01:35:44.267Z,6.56
2019-01-14T01:36:44.254Z,6.51
2019-01-14T01:37:44.247Z,6.56
2019-01-14T01:38:44.261Z,6.57
2019-01-14T01:39:44.215Z,6.51
2019-01-14T01:40:44.206Z,6.49
2019-01-14T01:41:44.195Z,6.60
2019-01-14T01:42:44.192Z,6.44
2019-01-14T01:43:44.174Z,6.48
2019-01-14T01:44:44.434Z,6.41
2019-01-14T01:45:44.174Z,6.49
2019-01-14T01:46:44.142Z,6.45
2019-01-14T01:47:44.129Z,6.42
2019-01-14T01:48:44.120Z,6.42
2019-01-14T01:49:44.125Z,6.42
2019-01-14T01:50:44.173Z,6.44
2019-01-14T01:51:44.081Z,6.39
2019-01-14T01:52:44.077Z,6.42
2019-01-14T01:53:44.062Z,6.39
2019-01-14T01:54:44.058Z,6.39
2019-01-14T01:55:44.062Z,6.41
2019-01-14T01:56:44.074Z,6.39
2019-01-14T01:57:44.030Z,6.39
2019-01-14T01:58:44.014Z,6.41
2019-01-14T01:59:44.005Z,6.39
2019-01-14T02:00:44.001Z,6.41
2019-01-14T02:01:43.980Z,6.44
2019-01-14T02:02:43.990Z,6.44
2019-01-14T02:03:43.966Z,6.39
2019-01-14T02:04:43.947Z,6.51
2019-01-14T02:05:43.930Z,6.39
2019-01-14T02:06:43.927Z,6.44
2019-01-14T02:07:43.917Z,6.42
2019-01-14T02:08:43.914Z,6.46
2019-01-14T02:09:43.888Z,6.41
2019-01-14T02:10:43.890Z,6.36
2019-01-14T02:11:43.870Z,6.44
2019-01-14T02:12:43.867Z,6.33
2019-01-14T02:13:43.865Z,6.44
2019-01-14T02:14:43.846Z,6.39
2019-01-14T02:15:43.850Z,6.48
2019-01-14T02:16:44.407Z,6.44
2019-01-14T02:17:43.813Z,6.42
2019-01-14T02:18:43.787Z,6.41
2019-01-14T02:19:43.801Z,6.41
2019-01-14T02:20:43.782Z,6.42
2019-01-14T02:21:43.760Z,6.44
2019-01-14T02:22:43.755Z,6.38
2019-01-14T02:23:43.746Z,6.36
2019-01-14T02:24:44.372Z,6.39
2019-01-14T02:25:43.748Z,6.35
2019-01-14T02:26:43.708Z,6.42
2019-01-14T02:27:43.699Z,6.42
2019-01-14T02:28:43.683Z,6.39
2019-01-14T02:29:43.675Z,6.42
2019-01-14T02:30:43.669Z,6.45
2019-01-14T02:31:43.671Z,6.38
2019-01-14T02:32:43.640Z,6.39
2019-01-14T02:33:43.641Z,6.39
2019-01-14T02:34:43.626Z,6.38
2019-01-14T02:35:43.614Z,6.45
2019-01-14T02:36:48.471Z,6.45
2019-01-14T02:37:44.631Z,6.45
2019-01-14T02:38:43.575Z,6.39
2019-01-14T02:39:43.559Z,6.46
2019-01-14T02:40:43.569Z,6.45
2019-01-14T02:41:43.541Z,6.52
2019-01-14T02:42:43.528Z,6.48
2019-01-14T02:43:43.545Z,6.49
2019-01-14T02:44:43.520Z,6.46
2019-01-14T02:45:43.536Z,6.46
2019-01-14T02:46:43.495Z,6.54
2019-01-14T02:47:43.494Z,6.46
2019-01-14T02:48:43.485Z,6.46
2019-01-14T02:49:43.451Z,6.56
2019-01-14T02:50:43.465Z,6.49
2019-01-14T02:51:43.448Z,6.56
2019-01-14T02:52:43.444Z,6.46
2019-01-14T02:53:43.411Z,6.45
2019-01-14T02:54:43.395Z,6.54
2019-01-14T02:55:43.397Z,6.56
2019-01-14T02:56:43.373Z,6.51
2019-01-14T02:57:43.372Z,6.46
2019-01-14T02:58:43.357Z,6.41
2019-01-14T02:59:43.366Z,6.48
2019-01-14T03:00:43.343Z,6.48
2019-01-14T03:01:43.321Z,6.48
2019-01-14T03:02:43.350Z,6.44
2019-01-14T03:03:43.298Z,6.36
2019-01-14T03:04:43.293Z,6.49
2019-01-14T03:05:43.292Z,6.39
2019-01-14T03:06:43.272Z,6.39
2019-01-14T03:07:43.263Z,6.42
2019-01-14T03:08:43.249Z,6.39
2019-01-14T03:09:43.238Z,6.42
2019-01-14T03:10:43.238Z,6.42
2019-01-14T03:11:43.227Z,6.39
2019-01-14T03:12:43.198Z,6.39
2019-01-14T03:13:43.192Z,6.48
2019-01-14T03:14:43.179Z,6.41
2019-01-14T03:15:43.175Z,6.38
2019-01-14T03:16:43.183Z,6.36
2019-01-14T03:17:43.144Z,6.42
2019-01-14T03:18:43.135Z,6.44
2019-01-14T03:19:43.127Z,6.39
2019-01-14T03:20:43.118Z,6.42
2019-01-14T03:21:43.125Z,6.33
2019-01-14T03:22:43.094Z,6.28
2019-01-14T03:23:43.077Z,6.33
2019-01-14T03:24:43.071Z,6.30
2019-01-14T03:25:43.054Z,6.28
2019-01-14T03:26:43.112Z,6.36
2019-01-14T03:27:43.046Z,6.35
2019-01-14T03:28:43.031Z,6.30
2019-01-14T03:29:43.026Z,6.28
2019-01-14T03:30:43.008Z,6.36
2019-01-14T03:31:42.990Z,6.33
2019-01-14T03:32:42.999Z,6.24
2019-01-14T03:33:42.969Z,6.35
2019-01-14T03:34:42.965Z,6.36
2019-01-14T03:35:42.959Z,6.26
2019-01-14T03:36:42.946Z,6.35
2019-01-14T03:37:43.939Z,6.35
2019-01-14T03:38:42.924Z,6.35
2019-01-14T03:39:42.912Z,6.28
2019-01-14T03:40:42.903Z,6.27
2019-01-14T03:41:42.884Z,6.26
2019-01-14T03:42:42.881Z,6.26
2019-01-14T03:43:42.889Z,6.27
2019-01-14T03:44:42.859Z,6.36
2019-01-14T03:45:42.840Z,6.27
2019-01-14T03:46:42.844Z,6.39
2019-01-14T03:47:42.819Z,6.45
2019-01-14T03:48:42.826Z,6.30
2019-01-14T03:49:42.802Z,6.30
2019-01-14T03:50:42.789Z,6.28
2019-01-14T03:51:42.777Z,6.11
2019-01-14T03:52:42.767Z,6.22
2019-01-14T03:53:42.778Z,6.24
2019-01-14T03:54:42.745Z,6.20
2019-01-14T03:55:42.735Z,6.24
2019-01-14T03:56:42.727Z,6.27
2019-01-14T03:57:42.722Z,6.22
2019-01-14T03:58:44.422Z,6.19
2019-01-14T03:59:42.692Z,6.22
2019-01-14T04:00:42.713Z,6.26
2019-01-14T04:01:42.661Z,6.14
2019-01-14T04:02:42.659Z,6.16
2019-01-14T04:03:42.648Z,6.09
2019-01-14T04:04:42.645Z,6.08
2019-01-14T04:05:42.625Z,6.07
2019-01-14T04:06:42.623Z,6.07
2019-01-14T04:07:42.600Z,6.05
2019-01-14T04:08:42.594Z,6.17
2019-01-14T04:09:42.589Z,6.08
2019-01-14T04:10:42.568Z,6.12
2019-01-14T04:11:42.577Z,6.14
2019-01-14T04:12:42.558Z,6.17
2019-01-14T04:13:42.538Z,6.08
2019-01-14T04:14:42.533Z,6.04
2019-01-14T04:15:42.538Z,6.04
2019-01-14T04:16:42.523Z,6.04
2019-01-14T04:17:42.502Z,6.02
2019-01-14T04:18:42.498Z,6.01
2019-01-14T04:19:42.470Z,5.98
2019-01-14T04:20:49.988Z,5.86
2019-01-14T04:21:50.475Z,5.90
2019-01-14T04:22:49.876Z,5.84
2019-01-14T04:23:50.445Z,5.94
2019-01-14T04:24:49.946Z,5.89
2019-01-14T04:25:42.410Z,5.94
2019-01-14T04:26:42.409Z,5.91
2019-01-14T04:27:42.396Z,5.86
2019-01-14T04:28:42.378Z,5.83
2019-01-14T04:29:43.116Z,5.84
2019-01-14T04:30:42.347Z,5.75
2019-01-14T04:31:42.344Z,5.71
2019-01-14T04:32:42.347Z,5.79
2019-01-14T04:33:42.352Z,5.76
2019-01-14T04:34:42.328Z,5.69
2019-01-14T04:35:42.296Z,5.64
2019-01-14T04:36:42.286Z,5.64
2019-01-14T04:37:42.284Z,5.59
2019-01-14T04:38:42.264Z,5.53
2019-01-14T04:39:42.264Z,5.51
2019-01-14T04:40:42.271Z,5.53
2019-01-14T04:41:42.241Z,5.50
2019-01-14T04:42:42.227Z,5.35
2019-01-14T04:43:42.638Z,5.43
2019-01-14T04:44:43.116Z,5.33
2019-01-14T04:45:42.207Z,5.36
2019-01-14T04:46:42.185Z,5.36
2019-01-14T04:47:42.172Z,5.33
2019-01-14T04:48:42.166Z,5.25
2019-01-14T04:49:42.166Z,5.23
2019-01-14T04:50:42.149Z,5.26
2019-01-14T04:51:42.141Z,5.28
2019-01-14T04:52:42.131Z,5.26
2019-01-14T04:53:42.115Z,5.18
2019-01-14T04:54:42.096Z,5.12
2019-01-14T04:55:42.091Z,5.08
2019-01-14T04:56:42.092Z,5.15
2019-01-14T04:57:42.079Z,5.08
2019-01-14T04:58:42.073Z,5.12
2019-01-14T04:59:42.044Z,5.05
2019-01-14T05:00:42.036Z,5.04
2019-01-14T05:01:42.028Z,5.00
2019-01-14T05:02:42.029Z,4.99
2019-01-14T05:03:42.004Z,5.04
2019-01-14T05:04:41.994Z,5.00
2019-01-14T05:05:41.977Z,5.04
2019-01-14T05:06:41.966Z,4.97
2019-01-14T05:07:41.974Z,4.90
2019-01-14T05:08:42.617Z,4.96
2019-01-14T05:09:41.946Z,4.86
2019-01-14T05:10:41.925Z,4.90
2019-01-14T05:11:41.921Z,4.82
2019-01-14T05:12:41.908Z,4.94
2019-01-14T05:13:41.901Z,4.80
2019-01-14T05:14:41.901Z,4.87
2019-01-14T05:15:41.874Z,4.93
2019-01-14T05:16:41.868Z,4.97
2019-01-14T05:17:41.854Z,4.97
2019-01-14T05:18:41.847Z,5.00
2019-01-14T05:19:41.847Z,4.97
2019-01-14T05:20:41.853Z,4.99
2019-01-14T05:21:41.832Z,5.00
2019-01-14T05:22:41.804Z,5.00
2019-01-14T05:23:41.790Z,5.10
2019-01-14T05:24:41.794Z,5.07
2019-01-14T05:25:41.783Z,5.02
2019-01-14T05:26:41.956Z,5.04
2019-01-14T05:27:41.754Z,4.94
2019-01-14T05:28:41.734Z,5.10
2019-01-14T05:29:41.748Z,5.04
2019-01-14T05:30:41.711Z,5.07
2019-01-14T05:31:42.023Z,5.05
2019-01-14T05:32:41.700Z,5.00
2019-01-14T05:33:41.681Z,5.05
2019-01-14T05:34:41.676Z,5.04
2019-01-14T05:35:41.679Z,4.96
2019-01-14T05:36:41.671Z,5.07
2019-01-14T05:37:41.645Z,5.00
2019-01-14T05:38:41.629Z,5.10
2019-01-14T05:39:41.621Z,5.15
2019-01-14T05:40:41.610Z,5.12
2019-01-14T05:41:41.597Z,5.10
2019-01-14T05:42:41.609Z,5.07
2019-01-14T05:43:41.582Z,5.10
2019-01-14T05:44:41.572Z,5.10
2019-01-14T05:45:41.561Z,5.10
2019-01-14T05:46:41.549Z,5.12
2019-01-14T05:47:42.123Z,5.12
2019-01-14T05:48:41.541Z,5.14
2019-01-14T05:49:41.516Z,5.08
2019-01-14T05:50:41.499Z,5.17
2019-01-14T05:51:41.488Z,5.04
2019-01-14T05:52:41.498Z,5.07
2019-01-14T05:53:41.511Z,5.15
2019-01-14T05:54:41.462Z,5.08
2019-01-14T05:55:41.450Z,4.97
2019-01-14T05:56:43.121Z,5.07
2019-01-14T05:57:41.428Z,5.05
2019-01-14T05:58:41.421Z,5.07
2019-01-14T05:59:41.419Z,5.04
2019-01-14T06:00:41.426Z,5.04
2019-01-14T06:01:41.394Z,5.12
2019-01-14T06:02:41.378Z,4.92
2019-01-14T06:03:41.361Z,5.00
2019-01-14T06:04:41.379Z,5.11
2019-01-14T06:05:41.354Z,5.05
2019-01-14T06:06:41.362Z,4.93
2019-01-14T06:07:44.965Z,5.11
2019-01-14T06:08:41.315Z,5.05
2019-01-14T06:09:41.301Z,5.14
2019-01-14T06:10:41.311Z,5.08
2019-01-14T06:11:41.281Z,5.08
2019-01-14T06:12:41.284Z,5.04
2019-01-14T06:13:41.262Z,5.04
2019-01-14T06:14:41.247Z,5.00
2019-01-14T06:15:41.247Z,4.99
2019-01-14T06:16:41.234Z,4.99
2019-01-14T06:17:41.210Z,5.02
2019-01-14T06:18:41.211Z,4.99
2019-01-14T06:19:41.209Z,5.04
2019-01-14T06:20:41.180Z,5.04
2019-01-14T06:21:42.539Z,4.97
2019-01-14T06:22:41.159Z,4.99
2019-01-14T06:23:41.156Z,5.05
2019-01-14T06:24:41.145Z,4.94
2019-01-14T06:25:41.124Z,4.93
2019-01-14T06:26:41.135Z,4.93
2019-01-14T06:27:41.107Z,4.87
2019-01-14T06:28:41.103Z,4.80
2019-01-14T06:29:41.089Z,4.78
2019-01-14T06:30:41.076Z,4.86
2019-01-14T06:31:41.070Z,4.89
2019-01-14T06:32:41.073Z,4.77
2019-01-14T06:33:41.116Z,4.80
2019-01-14T06:34:41.046Z,4.78
2019-01-14T06:35:41.028Z,4.75
2019-01-14T06:36:41.019Z,4.80
2019-01-14T06:37:40.995Z,4.80
2019-01-14T06:38:41.619Z,4.86
2019-01-14T06:39:40.987Z,4.77
2019-01-14T06:40:41.617Z,4.77
2019-01-14T06:41:40.960Z,4.86
2019-01-14T06:42:40.954Z,4.84
2019-01-14T06:43:41.600Z,4.74
2019-01-14T06:44:40.936Z,4.78
2019-01-14T06:45:40.920Z,4.77
2019-01-14T06:46:40.909Z,4.78
2019-01-14T06:47:40.907Z,4.84
2019-01-14T06:48:40.890Z,4.82
2019-01-14T06:49:40.902Z,4.78
2019-01-14T06:50:40.891Z,4.78
2019-01-14T06:51:40.863Z,4.78
2019-01-14T06:52:41.597Z,4.70
2019-01-14T06:53:40.844Z,4.70
2019-01-14T06:54:40.828Z,4.68
2019-01-14T06:55:41.594Z,4.73
2019-01-14T06:56:40.810Z,4.71
2019-01-14T06:57:40.791Z,4.70
2019-01-14T06:58:40.803Z,4.63
2019-01-14T06:59:41.073Z,4.60
2019-01-14T07:00:40.778Z,4.56
2019-01-14T07:01:40.791Z,4.50
2019-01-14T07:02:40.748Z,4.50
2019-01-14T07:03:40.749Z,4.45
2019-01-14T07:04:40.723Z,4.49
2019-01-14T07:05:40.729Z,4.52
2019-01-14T07:06:40.716Z,4.45
2019-01-14T07:07:40.721Z,4.42
2019-01-14T07:08:40.676Z,4.45
2019-01-14T07:09:40.661Z,4.48
2019-01-14T07:10:41.666Z,4.44
2019-01-14T07:11:40.643Z,4.35
2019-01-14T07:12:40.664Z,4.41
2019-01-14T07:13:40.625Z,4.40
2019-01-14T07:14:40.633Z,4.31
2019-01-14T07:15:40.598Z,4.37
2019-01-14T07:16:40.601Z,4.41
2019-01-14T07:17:44.619Z,4.37
2019-01-14T07:18:40.571Z,4.30
2019-01-14T07:19:40.560Z,4.41
2019-01-14T07:20:41.161Z,4.31
2019-01-14T07:21:40.532Z,4.35
2019-01-14T07:22:40.540Z,4.35
2019-01-14T07:23:40.558Z,4.40
2019-01-14T07:24:40.517Z,4.41
2019-01-14T07:25:40.490Z,4.37
2019-01-14T07:26:40.487Z,4.40
2019-01-14T07:27:40.496Z,4.48
2019-01-14T07:28:42.123Z,4.48
2019-01-14T07:29:43.133Z,4.49
2019-01-14T07:30:40.449Z,4.48
2019-01-14T07:31:40.427Z,4.44
2019-01-14T07:32:40.425Z,4.49
2019-01-14T07:33:40.408Z,4.52
2019-01-14T07:34:40.394Z,4.48
2019-01-14T07:35:40.413Z,4.48
2019-01-14T07:36:40.373Z,4.42
2019-01-14T07:37:40.369Z,4.48
2019-01-14T07:38:40.355Z,4.48
2019-01-14T07:39:41.093Z,4.53
2019-01-14T07:40:40.333Z,4.55
2019-01-14T07:41:40.357Z,4.55
2019-01-14T07:42:40.331Z,4.50
2019-01-14T07:43:40.300Z,4.52
2019-01-14T07:44:40.288Z,4.56
2019-01-14T07:45:40.283Z,4.58
2019-01-14T07:46:40.294Z,4.58
2019-01-14T07:47:40.258Z,4.53
2019-01-14T07:48:40.247Z,4.50
2019-01-14T07:49:40.240Z,4.55
2019-01-14T07:50:40.227Z,4.53
2019-01-14T07:51:41.466Z,4.53
2019-01-14T07:52:41.128Z,4.66
2019-01-14T07:53:40.211Z,4.58
2019-01-14T07:54:40.183Z,4.70
2019-01-14T07:55:42.117Z,4.71
2019-01-14T07:56:40.169Z,4.74
2019-01-14T07:57:40.180Z,4.80
2019-01-14T07:58:40.144Z,4.80
2019-01-14T07:59:40.137Z,4.86
2019-01-14T08:00:40.114Z,4.96
2019-01-14T08:01:40.115Z,4.96
2019-01-14T08:02:40.116Z,4.89
2019-01-14T08:03:40.089Z,4.92
2019-01-14T08:04:40.103Z,4.97
2019-01-14T08:05:40.078Z,4.92
2019-01-14T08:06:40.070Z,4.99
2019-01-14T08:07:40.058Z,4.99
2019-01-14T08:08:40.036Z,5.04
2019-01-14T08:09:40.055Z,5.02
2019-01-14T08:10:40.017Z,5.08
2019-01-14T08:11:40.003Z,5.00
2019-01-14T08:12:40.000Z,5.14
2019-01-14T08:13:39.984Z,5.11
2019-01-14T08:14:42.745Z,5.25
2019-01-14T08:15:40.970Z,5.29
2019-01-14T08:16:39.954Z,5.29
2019-01-14T08:17:39.933Z,5.26
2019-01-14T08:18:39.975Z,5.25
2019-01-14T08:19:39.913Z,5.29
2019-01-14T08:20:39.920Z,5.28
2019-01-14T08:21:39.895Z,5.18
2019-01-14T08:22:39.886Z,5.29
2019-01-14T08:23:39.880Z,5.21
2019-01-14T08:24:39.877Z,5.30
2019-01-14T08:25:39.853Z,5.29
2019-01-14T08:26:39.861Z,5.33
2019-01-14T08:27:39.828Z,5.43
2019-01-14T08:28:39.825Z,5.46
2019-01-14T08:29:39.808Z,5.51
2019-01-14T08:30:39.799Z,5.50
2019-01-14T08:31:39.802Z,5.38
2019-01-14T08:32:39.779Z,5.48
2019-01-14T08:33:39.787Z,5.51
2019-01-14T08:34:39.755Z,5.59
2019-01-14T08:35:39.748Z,5.53
2019-01-14T08:36:39.776Z,5.53
2019-01-14T08:37:39.735Z,5.56
2019-01-14T08:38:39.714Z,5.54
2019-01-14T08:39:39.734Z,5.47
2019-01-14T08:40:39.711Z,5.53
2019-01-14T08:41:39.679Z,5.56
2019-01-14T08:42:39.677Z,5.56
2019-01-14T08:43:39.676Z,5.53
2019-01-14T08:44:47.429Z,5.59
2019-01-14T08:45:47.910Z,5.62
2019-01-14T08:46:47.411Z,5.66
2019-01-14T08:47:46.892Z,5.57
2019-01-14T08:48:48.936Z,5.72
2019-01-14T08:49:47.868Z,5.69
2019-01-14T08:50:47.396Z,5.79
2019-01-14T08:51:40.574Z,5.73
2019-01-14T08:52:39.567Z,5.71
2019-01-14T08:53:39.552Z,5.83
2019-01-14T08:54:40.405Z,5.72
2019-01-14T08:55:39.541Z,5.76
2019-01-14T08:56:39.516Z,5.71
2019-01-14T08:57:39.513Z,5.69
2019-01-14T08:58:39.499Z,5.69
2019-01-14T08:59:39.514Z,5.71
2019-01-14T09:00:39.479Z,5.59
2019-01-14T09:01:39.471Z,5.59
2019-01-14T09:02:39.459Z,5.59
2019-01-14T09:03:39.462Z,5.56
2019-01-14T09:04:41.354Z,5.51
2019-01-14T09:05:39.437Z,5.39
2019-01-14T09:06:39.438Z,5.38
2019-01-14T09:07:39.403Z,5.35
2019-01-14T09:08:39.911Z,5.35
2019-01-14T09:09:39.385Z,5.41
2019-01-14T09:10:39.391Z,5.35
2019-01-14T09:11:39.364Z,5.44
2019-01-14T09:12:39.371Z,5.41
2019-01-14T09:13:39.337Z,5.41
2019-01-14T09:14:39.340Z,5.54
2019-01-14T09:15:39.335Z,5.54
2019-01-14T09:16:39.309Z,5.59
2019-01-14T09:17:39.314Z,5.64
2019-01-14T09:18:39.280Z,5.64
2019-01-14T09:19:39.898Z,5.73
2019-01-14T09:20:39.291Z,5.64
2019-01-14T09:21:39.252Z,5.72
2019-01-14T09:22:39.235Z,5.73
2019-01-14T09:23:41.864Z,5.69
2019-01-14T09:24:39.233Z,5.69
2019-01-14T09:25:39.205Z,5.76
2019-01-14T09:26:39.219Z,5.82
2019-01-14T09:27:39.193Z,5.82
2019-01-14T09:28:39.182Z,5.83
2019-01-14T09:29:39.176Z,5.89
2019-01-14T09:30:39.179Z,5.94
2019-01-14T09:31:39.171Z,5.98
2019-01-14T09:32:39.158Z,5.97
2019-01-14T09:33:40.887Z,6.09
2019-01-14T09:34:39.133Z,6.09
2019-01-14T09:35:39.121Z,6.24
2019-01-14T09:36:39.087Z,6.38
2019-01-14T09:37:39.085Z,6.41
2019-01-14T09:38:39.092Z,6.54
2019-01-14T09:39:39.068Z,6.51
2019-01-14T09:40:39.069Z,6.48
2019-01-14T09:41:39.049Z,6.45
2019-01-14T09:42:39.023Z,6.66
2019-01-14T09:43:39.010Z,6.77
2019-01-14T09:44:39.015Z,6.69
2019-01-14T09:45:39.003Z,6.72
2019-01-14T09:46:38.980Z,6.77
2019-01-14T09:47:38.963Z,6.78
2019-01-14T09:48:39.013Z,6.81
2019-01-14T09:49:39.854Z,6.93
2019-01-14T09:50:38.947Z,6.88
2019-01-14T09:51:38.955Z,6.78
2019-01-14T09:52:38.922Z,6.96
2019-01-14T09:53:38.921Z,7.18
2019-01-14T09:54:38.895Z,7.33
2019-01-14T09:55:38.895Z,7.40
2019-01-14T09:56:38.882Z,7.51
2019-01-14T09:57:38.872Z,7.51
2019-01-14T09:58:38.847Z,7.51
2019-01-14T09:59:38.850Z,7.58
2019-01-14T10:00:38.851Z,7.67
2019-01-14T10:01:38.830Z,7.70
2019-01-14T10:02:38.805Z,7.75
2019-01-14T10:03:38.803Z,7.93
2019-01-14T10:04:38.784Z,7.90
2019-01-14T10:05:38.774Z,7.88
2019-01-14T10:06:38.787Z,8.01
2019-01-14T10:07:38.764Z,7.87
2019-01-14T10:08:43.084Z,7.90
2019-01-14T10:09:38.745Z,7.91
2019-01-14T10:10:38.715Z,8.05
2019-01-14T10:11:38.736Z,8.15
2019-01-14T10:12:38.706Z,8.27
2019-01-14T10:13:38.683Z,8.37
2019-01-14T10:14:38.672Z,8.27
2019-01-14T10:15:38.685Z,8.45
2019-01-14T10:16:40.390Z,8.63
2019-01-14T10:17:38.642Z,8.73
2019-01-14T10:18:38.633Z,9.19
2019-01-14T10:19:38.625Z,9.36
2019-01-14T10:20:38.621Z,9.68
2019-01-14T10:21:38.617Z,10.13
2019-01-14T10:22:39.373Z,10.53
2019-01-14T10:23:38.579Z,10.46
2019-01-14T10:24:38.568Z,10.54
2019-01-14T10:25:38.563Z,10.79
2019-01-14T10:26:38.537Z,10.84
2019-01-14T10:27:40.426Z,11.19
2019-01-14T10:28:38.525Z,11.23
2019-01-14T10:29:38.538Z,11.48
2019-01-14T10:30:39.626Z,11.69
2019-01-14T10:31:38.491Z,11.73
2019-01-14T10:32:38.473Z,11.15
2019-01-14T10:33:39.914Z,10.56
2019-01-14T10:34:39.466Z,10.38
2019-01-14T10:35:38.475Z,10.49
2019-01-14T10:36:38.455Z,10.02
2019-01-14T10:37:39.366Z,9.89
2019-01-14T10:38:38.420Z,10.35
2019-01-14T10:39:38.420Z,10.42
2019-01-14T10:40:38.403Z,10.54
2019-01-14T10:41:39.385Z,10.44
2019-01-14T10:42:38.385Z,9.98
2019-01-14T10:43:38.356Z,9.65
2019-01-14T10:44:38.378Z,9.56
2019-01-14T10:45:38.341Z,9.48
2019-01-14T10:46:38.346Z,9.26
2019-01-14T10:47:38.329Z,9.21
2019-01-14T10:48:38.311Z,9.03
2019-01-14T10:49:38.297Z,8.87
2019-01-14T10:50:38.282Z,8.55
2019-01-14T10:51:38.269Z,8.46
2019-01-14T10:52:38.287Z,8.42
2019-01-14T10:53:38.257Z,8.33
2019-01-14T10:54:38.252Z,8.33
2019-01-14T10:55:38.245Z,8.33
2019-01-14T10:56:38.213Z,8.31
2019-01-14T10:57:38.232Z,8.70
2019-01-14T10:58:38.221Z,8.84
2019-01-14T10:59:38.189Z,8.71
2019-01-14T11:00:38.182Z,8.84
2019-01-14T11:01:38.871Z,9.19
2019-01-14T11:02:38.155Z,9.02
2019-01-14T11:03:38.142Z,9.31
2019-01-14T11:04:38.142Z,9.29
2019-01-14T11:05:38.153Z,9.28
2019-01-14T11:06:38.117Z,9.62
2019-01-14T11:07:38.099Z,9.82
2019-01-14T11:08:38.090Z,9.51
2019-01-14T11:09:38.105Z,9.32
2019-01-14T11:10:38.078Z,8.84
2019-01-14T11:11:38.062Z,8.94
2019-01-14T11:12:38.049Z,9.02
2019-01-14T11:13:38.031Z,8.84
2019-01-14T11:14:38.033Z,8.71
2019-01-14T11:15:38.040Z,8.45
2019-01-14T11:16:38.001Z,8.18
2019-01-14T11:17:38.005Z,8.03
2019-01-14T11:18:37.992Z,7.88
2019-01-14T11:19:37.966Z,7.87
2019-01-14T11:20:38.926Z,8.08
2019-01-14T11:21:40.916Z,7.91
2019-01-14T11:22:37.938Z,7.90
2019-01-14T11:23:38.909Z,7.73
2019-01-14T11:24:38.872Z,7.79
2019-01-14T11:26:31.546Z,7.94
2019-01-14T11:27:30.519Z,7.90
2019-01-14T11:28:29.837Z,7.90
2019-01-14T11:29:29.862Z,7.80
2019-01-14T11:30:29.828Z,7.33
2019-01-14T11:31:29.820Z,7.15
2019-01-14T11:32:31.513Z,7.11
2019-01-14T11:33:29.784Z,7.03
2019-01-14T11:34:29.792Z,6.97
2019-01-14T11:35:29.757Z,6.92
2019-01-14T11:36:29.766Z,7.07
2019-01-14T11:37:29.734Z,7.17
2019-01-14T11:38:29.730Z,6.97
2019-01-14T11:39:29.773Z,7.02
2019-01-14T11:40:30.527Z,6.92
2019-01-14T11:41:29.791Z,6.72
2019-01-14T11:42:29.696Z,6.67
2019-01-14T11:43:29.690Z,6.51
2019-01-14T11:44:31.540Z,6.42
2019-01-14T11:45:30.521Z,6.45
2019-01-14T11:46:29.658Z,6.24
2019-01-14T11:47:29.759Z,6.24
2019-01-14T11:48:29.632Z,6.27
2019-01-14T11:49:29.749Z,6.22
2019-01-14T11:50:29.614Z,6.26
2019-01-14T11:51:29.729Z,6.08
2019-01-14T11:52:29.588Z,6.26
2019-01-14T11:53:29.693Z,6.11
2019-01-14T11:54:29.549Z,6.22
2019-01-14T11:55:29.671Z,6.07
2019-01-14T11:56:30.534Z,6.07
2019-01-14T11:57:30.485Z,6.05
2019-01-14T11:58:29.539Z,6.05
2019-01-14T11:59:29.511Z,6.14
2019-01-14T12:00:36.287Z,6.17
2019-01-14T12:01:33.021Z,6.09
2019-01-14T12:02:29.993Z,6.16
2019-01-14T12:03:32.014Z,6.16
2019-01-14T12:04:30.492Z,6.16
2019-01-14T12:05:37.041Z,6.17
2019-01-14T12:06:30.434Z,6.12
2019-01-14T12:07:29.458Z,6.04
2019-01-14T12:08:29.422Z,6.01
2019-01-14T12:09:30.059Z,5.94
2019-01-14T12:10:30.014Z,6.02
2019-01-14T12:11:32.018Z,5.89
2019-01-14T12:12:30.029Z,5.89
2019-01-14T12:13:30.505Z,5.87
2019-01-14T12:14:30.020Z,5.94
2019-01-14T12:15:30.154Z,5.90
2019-01-14T12:16:31.026Z,5.99
2019-01-14T12:17:30.067Z,6.08
2019-01-14T12:18:31.026Z,6.12
2019-01-14T12:19:30.139Z,6.14
2019-01-14T12:20:29.309Z,6.28
2019-01-14T12:21:30.062Z,6.26
2019-01-14T12:22:30.009Z,6.31
2019-01-14T12:23:29.287Z,6.28
2019-01-14T12:24:31.019Z,6.38
2019-01-14T12:25:31.025Z,6.31
2019-01-14T12:26:32.046Z,6.30
2019-01-14T12:27:30.049Z,6.30
2019-01-14T12:28:30.215Z,6.26
2019-01-14T12:29:31.030Z,6.19
2019-01-14T12:30:32.036Z,6.11
2019-01-14T12:31:30.028Z,6.16
2019-01-14T12:32:29.202Z,6.08
2019-01-14T12:33:29.156Z,6.04
2019-01-14T12:34:30.030Z,5.98
2019-01-14T12:35:30.030Z,6.04
2019-01-14T12:36:30.112Z,6.04
2019-01-14T12:37:30.122Z,5.90
2019-01-14T12:38:29.105Z,5.93
2019-01-14T12:39:30.030Z,5.94
2019-01-14T12:40:29.066Z,5.86
2019-01-14T12:41:29.225Z,5.86
2019-01-14T12:42:33.088Z,5.89
2019-01-14T12:43:30.138Z,5.83
2019-01-14T12:44:30.070Z,5.79
2019-01-14T12:45:30.116Z,5.69
2019-01-14T12:46:29.534Z,5.72
2019-01-14T12:47:29.169Z,5.82
2019-01-14T12:48:30.518Z,5.73
2019-01-14T12:49:28.990Z,5.76
2019-01-14T12:50:30.555Z,5.68
2019-01-14T12:51:29.036Z,5.68
2019-01-14T12:52:28.936Z,5.62
2019-01-14T12:53:30.520Z,5.68
2019-01-14T12:54:29.896Z,5.66
2019-01-14T12:55:29.131Z,5.68
2019-01-14T12:56:28.928Z,5.80
2019-01-14T12:57:31.528Z,5.79
2019-01-14T12:58:30.056Z,5.71
2019-01-14T12:59:29.242Z,5.76
2019-01-14T13:00:29.846Z,5.66
2019-01-14T13:01:29.048Z,5.66
2019-01-14T13:02:29.126Z,5.59
2019-01-14T13:03:28.950Z,5.47
2019-01-14T13:04:36.237Z,5.48
2019-01-14T13:05:37.511Z,5.43
2019-01-14T13:06:36.208Z,5.50
2019-01-14T13:07:28.926Z,5.50
2019-01-14T13:08:37.174Z,5.57
2019-01-14T13:09:38.562Z,5.51
2019-01-14T13:10:37.742Z,5.57
2019-01-14T13:11:28.750Z,5.69
2019-01-14T13:12:31.246Z,5.72
2019-01-14T13:13:28.711Z,5.73
2019-01-14T13:14:28.749Z,5.76
2019-01-14T13:15:28.702Z,5.79
2019-01-14T13:16:29.235Z,5.80
2019-01-14T13:17:29.796Z,5.83
2019-01-14T13:18:29.212Z,5.73